createdAt,value
2023-02-01T00:03:12.703Z,36.64128
2023-02-01T00:08:13.777Z,36.53727
2023-02-01T00:13:14.979Z,36.29466
2023-02-01T00:18:16.173Z,36.09708
2023-02-01T00:23:17.168Z,35.73343
2023-02-01T00:28:18.065Z,35.64754
2023-02-01T00:33:19.004Z,35.52679
2023-02-01T00:38:19.918Z,35.43333
2023-02-01T00:43:20.864Z,35.20754
2023-02-01T00:48:21.750Z,35.04006
2023-02-01T00:53:22.712Z,35.04518
2023-02-01T00:58:23.637Z,35.03944
2023-02-01T01:03:24.569Z,35.26604
2023-02-01T01:08:25.483Z,35.37569
2023-02-01T01:13:26.388Z,35.61956
2023-02-01T01:18:27.334Z,35.735
2023-02-01T01:23:28.257Z,35.66536
2023-02-01T01:28:29.188Z,35.63632
2023-02-01T01:33:30.201Z,35.78711
2023-02-01T01:38:31.150Z,35.67731
2023-02-01T01:43:32.105Z,35.69568
2023-02-01T01:48:33.035Z,35.51009
2023-02-01T01:53:33.991Z,35.49857
2023-02-01T01:58:34.902Z,35.25518
2023-02-01T02:03:35.908Z,35.15158
2023-02-01T02:08:36.829Z,34.89672
2023-02-01T02:13:37.785Z,34.82657
2023-02-01T02:18:38.736Z,34.642
2023-02-01T02:23:39.670Z,34.60738
2023-02-01T02:28:40.609Z,34.71793
2023-02-01T02:33:41.530Z,34.74131
2023-02-01T02:38:42.474Z,34.81133
2023-02-01T02:43:43.409Z,34.8746
2023-02-01T02:48:44.435Z,35.06595
2023-02-01T02:53:45.407Z,34.96083
2023-02-01T02:58:46.348Z,35.00705
2023-02-01T03:03:47.412Z,35.03001
2023-02-01T03:08:48.321Z,34.94851
2023-02-01T03:13:49.457Z,34.94888
2023-02-01T03:18:50.403Z,34.89022
2023-02-01T03:23:51.346Z,34.85528
2023-02-01T03:28:52.291Z,34.79146
2023-02-01T03:33:53.246Z,34.7742
2023-02-01T03:38:54.151Z,34.65201
2023-02-01T03:43:55.085Z,34.55929
2023-02-01T03:48:56.002Z,34.50727
2023-02-01T03:53:56.987Z,34.45471
2023-02-01T03:58:57.922Z,34.46589
2023-02-01T04:03:58.903Z,34.37855
2023-02-01T04:08:59.836Z,34.38452
2023-02-01T04:14:00.876Z,34.43667
2023-02-01T04:19:01.940Z,34.34789
2023-02-01T04:24:02.863Z,34.22021
2023-02-01T04:29:03.783Z,34.23179
2023-02-01T04:34:04.738Z,34.12666
2023-02-01T04:39:05.669Z,34.15653
2023-02-01T04:44:06.592Z,34.0974
2023-02-01T04:49:07.489Z,34.09684
2023-02-01T04:54:08.438Z,34.0323
2023-02-01T04:59:09.307Z,33.9738
2023-02-01T05:04:10.262Z,33.92667
2023-02-01T05:09:11.175Z,33.93865
2023-02-01T05:14:12.089Z,33.8689
2023-02-01T05:19:13.045Z,33.82747
2023-02-01T05:24:14.261Z,33.80918
2023-02-01T05:29:15.181Z,33.78039
2023-02-01T05:34:16.170Z,33.86745
2023-02-01T05:39:17.091Z,33.76878
2023-02-01T05:44:18.010Z,33.80332
2023-02-01T05:49:18.934Z,33.75132
2023-02-01T05:54:19.865Z,33.82084
2023-02-01T05:59:20.792Z,33.85048
2023-02-01T06:04:21.728Z,33.78021
2023-02-01T06:09:22.658Z,33.76801
2023-02-01T06:14:23.611Z,33.84423
2023-02-01T06:19:24.536Z,34.19284
2023-02-01T06:24:25.632Z,34.26706
2023-02-01T06:29:26.568Z,34.62227
2023-02-01T06:34:27.501Z,34.76096
2023-02-01T06:39:28.400Z,34.78283
2023-02-01T06:44:29.307Z,34.86962
2023-02-01T06:49:30.254Z,34.92738
2023-02-01T06:54:31.301Z,34.99303
2023-02-01T06:59:32.223Z,35.06877
2023-02-01T07:04:33.155Z,35.10922
2023-02-01T07:09:34.197Z,34.85889
2023-02-01T07:14:35.094Z,34.64422
2023-02-01T07:19:36.011Z,34.43528
2023-02-01T07:24:36.974Z,34.31476
2023-02-01T07:29:37.894Z,34.58714
2023-02-01T07:34:38.914Z,34.76628
2023-02-01T07:39:39.987Z,34.89271
2023-02-01T07:44:40.921Z,34.81094
2023-02-01T07:49:41.862Z,34.94291
2023-02-01T07:54:42.779Z,35.524
2023-02-01T07:59:43.735Z,36.29499
2023-02-01T08:04:44.694Z,37.01901
2023-02-01T08:09:45.680Z,37.27343
2023-02-01T08:14:46.670Z,37.67238
2023-02-01T08:19:47.604Z,37.94974
2023-02-01T08:24:48.562Z,38.02473
2023-02-01T08:29:49.495Z,38.2153
2023-02-01T08:34:50.471Z,38.55631
2023-02-01T08:39:51.405Z,38.7525
2023-02-01T08:44:52.335Z,38.65418
2023-02-01T08:49:53.280Z,39.1277
2023-02-01T08:54:54.263Z,39.21999
2023-02-01T08:59:55.322Z,39.71607
2023-02-01T09:04:56.314Z,39.72189
2023-02-01T09:09:57.269Z,39.62958
2023-02-01T09:14:58.300Z,39.43923
2023-02-01T09:19:59.294Z,39.49114
2023-02-01T09:25:00.271Z,39.38154
2023-02-01T09:30:01.384Z,39.09281
2023-02-01T09:35:02.324Z,38.89663
2023-02-01T09:40:03.513Z,38.66545
2023-02-01T09:45:04.514Z,38.61358
2023-02-01T09:50:05.451Z,38.43997
2023-02-01T09:55:06.351Z,38.27835
2023-02-01T10:00:07.284Z,38.24903
2023-02-01T10:05:08.228Z,38.07577
2023-02-01T10:10:09.118Z,38.06996
2023-02-01T10:15:10.050Z,38.05272
2023-02-01T10:20:10.969Z,38.26682
2023-02-01T10:25:11.936Z,38.41108
2023-02-01T10:30:12.873Z,38.40528
2023-02-01T10:35:14.272Z,38.05745
2023-02-01T10:40:15.189Z,37.68113
2023-02-01T10:45:16.534Z,37.54233
2023-02-01T10:50:17.654Z,37.68121
2023-02-01T10:55:18.644Z,37.66489
2023-02-01T11:00:19.596Z,38.03512
2023-02-01T11:05:20.530Z,38.2255
2023-02-01T11:10:21.760Z,38.17918
2023-02-01T11:15:23.157Z,37.98767
2023-02-01T11:20:24.295Z,37.82432
2023-02-01T11:25:25.592Z,37.35518
2023-02-01T11:30:26.775Z,36.86715
2023-02-01T11:35:27.717Z,36.54581
2023-02-01T11:40:28.668Z,35.78885
2023-02-01T11:45:29.728Z,35.19738
2023-02-01T11:50:30.652Z,33.91996
2023-02-01T11:55:31.586Z,34.02706
2023-02-01T12:00:32.501Z,34.00909
2023-02-01T12:05:33.383Z,34.21891
2023-02-01T12:10:34.302Z,34.03122
2023-02-01T12:15:35.272Z,33.81472
2023-02-01T12:20:36.172Z,33.71346
2023-02-01T12:25:37.100Z,33.4949
2023-02-01T12:30:38.055Z,33.16193
2023-02-01T12:35:38.982Z,33.4267
2023-02-01T12:40:39.927Z,33.26511
2023-02-01T12:45:40.905Z,33.55021
2023-02-01T12:50:41.844Z,33.34645
2023-02-01T12:55:42.765Z,33.20751
2023-02-01T13:00:43.715Z,33.09124
2023-02-01T13:05:44.656Z,32.93892
2023-02-01T13:10:45.572Z,32.79373
2023-02-01T13:15:46.506Z,32.9338
2023-02-01T13:20:47.433Z,32.88732
2023-02-01T13:25:48.397Z,32.97041
2023-02-01T13:30:49.524Z,32.88067
2023-02-01T13:35:50.533Z,33.09802
2023-02-01T13:40:51.673Z,33.23185
2023-02-01T13:45:52.651Z,33.06141
2023-02-01T13:50:53.575Z,33.119
2023-02-01T13:55:54.490Z,32.98996
2023-02-01T14:00:55.412Z,32.89751
2023-02-01T14:05:56.367Z,32.92019
2023-02-01T14:10:57.319Z,32.97826
2023-02-01T14:16:03.528Z,33.13057
2023-02-01T14:21:09.820Z,33.37602
2023-02-01T14:26:19.778Z,33.81853
2023-02-01T14:31:20.911Z,33.94726
2023-02-01T14:36:21.913Z,33.69278
2023-02-01T14:41:22.867Z,33.69214
2023-02-01T14:46:23.875Z,33.48299
2023-02-01T14:51:25.089Z,33.34501
2023-02-01T14:56:26.043Z,32.99189
2023-02-01T15:01:27.095Z,32.94381
2023-02-01T15:06:28.041Z,32.8324
2023-02-01T15:11:28.978Z,32.7784
2023-02-01T15:16:30.095Z,32.79151
2023-02-01T15:21:31.384Z,33.96279
2023-02-01T15:26:33.549Z,34.98097
2023-02-01T15:31:34.617Z,35.77206
2023-02-01T15:36:35.702Z,36.3786
2023-02-01T15:41:36.670Z,36.92319
2023-02-01T15:46:37.635Z,37.29949
2023-02-01T15:51:38.558Z,37.56606
2023-02-01T15:56:39.446Z,37.6934
2023-02-01T16:01:43.049Z,37.53633
2023-02-01T16:06:44.205Z,37.25936
2023-02-01T16:11:45.133Z,37.30059
2023-02-01T16:16:51.086Z,37.41709
2023-02-01T16:21:52.005Z,37.3483
2023-02-01T16:26:53.057Z,37.37329
2023-02-01T16:31:54.136Z,37.38632
2023-02-01T16:36:55.136Z,37.62371
2023-02-01T16:41:56.069Z,37.73344
2023-02-01T16:46:56.995Z,38.06865
2023-02-01T16:51:57.915Z,38.27007
2023-02-01T16:56:58.835Z,38.47758
2023-02-01T17:01:59.814Z,38.56967
2023-02-01T17:07:00.760Z,38.55232
2023-02-01T17:12:01.793Z,38.63299
2023-02-01T17:17:02.754Z,38.59262
2023-02-01T17:22:03.679Z,38.79436
2023-02-01T17:27:04.629Z,38.93262
2023-02-01T17:32:06.657Z,39.01894
2023-02-01T17:37:07.831Z,39.1399
2023-02-01T17:42:08.756Z,39.26655
2023-02-01T17:47:09.664Z,39.32987
2023-02-01T17:52:10.596Z,39.19162
2023-02-01T17:57:11.552Z,39.36443
2023-02-01T18:02:12.478Z,39.44505
2023-02-01T18:07:13.414Z,39.2146
2023-02-01T18:12:14.608Z,39.1627
2023-02-01T18:17:15.828Z,39.04161
2023-02-01T18:22:16.760Z,39.03008
2023-02-01T18:27:17.694Z,39.04735
2023-02-01T18:32:18.592Z,39.08766
2023-02-01T18:37:19.488Z,39.00684
2023-02-01T18:42:20.451Z,38.99521
2023-02-01T18:47:21.350Z,38.92594
2023-02-01T18:52:22.281Z,38.7413
2023-02-01T18:57:23.249Z,38.74723
2023-02-01T19:02:24.347Z,38.574
2023-02-01T19:07:25.384Z,38.63174
2023-02-01T19:12:26.316Z,38.58567
2023-02-01T19:17:27.276Z,38.58558
2023-02-01T19:22:28.219Z,38.70118
2023-02-01T19:27:29.171Z,38.64335
2023-02-01T19:32:30.122Z,38.70682
2023-02-01T19:37:31.067Z,38.52205
2023-02-01T19:42:32.086Z,38.41797
2023-02-01T19:47:33.042Z,38.26795
2023-02-01T19:52:34.055Z,38.23293
2023-02-01T19:57:35.016Z,37.99656
2023-02-01T20:02:35.104Z,37.89279
2023-02-01T20:07:36.142Z,37.77701
2023-02-01T20:12:37.071Z,37.47636
2023-02-01T20:17:38.015Z,37.34924
2023-02-01T20:22:39.023Z,37.25697
2023-02-01T20:27:40.828Z,37.19343
2023-02-01T20:32:41.756Z,37.36767
2023-02-01T20:37:42.710Z,37.43098
2023-02-01T20:42:43.727Z,37.32091
2023-02-01T20:47:44.699Z,37.09001
2023-02-01T20:52:45.622Z,37.17685
2023-02-01T20:57:46.581Z,36.92273
2023-02-01T21:02:47.478Z,36.81892
2023-02-01T21:07:48.433Z,36.76719
2023-02-01T21:12:53.432Z,36.67491
2023-02-01T21:18:02.159Z,36.6412
2023-02-01T21:23:03.064Z,36.68781
2023-02-01T21:28:04.004Z,36.65306
2023-02-01T21:33:04.947Z,36.64749
2023-02-01T21:38:05.873Z,36.64753
2023-02-01T21:43:06.866Z,36.63572
2023-02-01T21:48:07.782Z,36.61866
2023-02-01T21:53:08.676Z,36.50289
2023-02-01T21:58:09.704Z,36.41037
2023-02-01T22:03:10.628Z,36.35953
2023-02-01T22:08:11.561Z,36.3541
2023-02-01T22:13:12.555Z,36.42981
2023-02-01T22:18:13.517Z,36.2561
2023-02-01T22:23:14.878Z,36.22719
2023-02-01T22:28:30.218Z,36.12859
2023-02-01T22:33:34.248Z,35.93149
2023-02-01T22:38:35.216Z,35.78816
2023-02-01T22:43:36.301Z,35.78189
2023-02-01T22:48:37.270Z,35.69564
2023-02-01T22:53:38.183Z,35.63722
2023-02-01T22:58:39.139Z,35.62532
2023-02-01T23:03:40.336Z,35.65944
2023-02-01T23:08:41.337Z,35.75293
2023-02-01T23:13:42.335Z,35.75778
2023-02-01T23:18:43.272Z,35.77543
2023-02-01T23:23:44.393Z,35.90899
2023-02-01T23:28:45.519Z,36.05975
2023-02-01T23:33:46.538Z,35.99013
2023-02-01T23:38:47.460Z,35.93816
2023-02-01T23:43:48.406Z,35.98984
2023-02-01T23:48:49.352Z,36.05981
2023-02-01T23:53:50.333Z,36.22771
2023-02-01T23:58:51.244Z,36.16952
